KSAD/SAD METAR and TAF weather

Enter ICAO airport designator
Station Type Date Time Source
KSAD METAR 2019/02/23 22:51 UTC NOAA

KSAD 232251Z AUTO 31012KT 10SM CLR 10/M04 A3021 RMK AO2 SLP225 T01001044


Station Type Date Time Source
KSAD Decoded METAR 2019/02/23 22:51 UTC NOAA

SAFFORD MUNICIPAL AIRPORT, AZ, United States (KSAD) 32-51N 109-38W 962M
Feb 23, 2019 - 05:51 PM EST / 2019.02.23 2251 UTC
Wind: from the NW (310 degrees) at 14 MPH (12 KT):0
Visibility: 10 mile(s):0
Sky conditions: clear
Temperature: 50.0 F (10.0 C)
Dew Point: 24.1 F (-4.4 C)
Relative Humidity: 35%
Pressure (altimeter): 30.21 in. Hg (1023 hPa)
ob: KSAD 232251Z AUTO 31012KT 10SM CLR 10/M04 A3021 RMK AO2 SLP225 T01001044
cycle: 23

Station Type Date Time Source
KSAD TAF UTC NOAA

Error!


Example: see airport list